Capo Vado — IPWV — position and weather

sailwx.info

Track history (hours):
 
Tides and Currents Weather Stations Pressure Air Temp Water Temp Dewpoint Dewpoint Depression Visibility Wind Speed Wind Dir Waves Ship Positions

Capo Vado

Last reported at 2016-May-27 07:27 UTC. Time now 2016-May-27 10:20 UTC.
Position N 44°18' E 008°29'.

Length 30 m; draft 4.5 m.

Type: Tug. MMSI: 247228400.

Date/timePositionNaut miles runAvg speedWind from/ knotsBaromVisibWave heightAir tempDewpointWater temp
2016-May-27 07:27N 44°18' E 008°29'1 1.0
2016-May-27 06:33N 44°19' E 008°30'1 0.7
2016-May-27 05:17N 44°18' E 008°29'0 0.0
2016-May-26 23:26N 44°18' E 008°29'0 0.0
2016-May-26 17:32N 44°18' E 008°29'0 0.0
2016-May-26 16:32N 44°18' E 008°29'0 0.0
2016-May-26 15:32N 44°18' E 008°29'0 0.0
2016-May-26 14:26N 44°18' E 008°29'0 0.0
2016-May-26 13:29N 44°18' E 008°29'0 0.0
2016-May-26 12:26N 44°18' E 008°29'0 0.0
2016-May-26 11:32N 44°18' E 008°29'0 0.1
2016-May-26 09:33N 44°19' E 008°29'3 3.0
2016-May-26 08:29N 44°16' E 008°27'4 0.2
2016-May-25 13:30N 44°19' E 008°30'1 0.0
2016-May-24 08:13N 44°18' E 008°29'0 0.0
2016-May-24 05:28N 44°18' E 008°29'1 0.7
2016-May-24 04:32N 44°19' E 008°30'0 0.2
2016-May-24 03:32N 44°19' E 008°30'1 0.4
2016-May-24 02:03N 44°18' E 008°29'0 0.0
2016-May-24 01:21N 44°18' E 008°29'0 0.0
2016-May-23 13:20N 44°19' E 008°29'1 1.0
2016-May-23 12:30N 44°19' E 008°30'0 0.1
2016-May-23 10:29N 44°19' E 008°30'1 0.2
2016-May-23 07:22N 44°18' E 008°29'2 2.7
2016-May-23 06:31N 44°17' E 008°28'0 0.4
2016-May-23 05:33N 44°16' E 008°28'3 3.0
2016-May-23 04:25N 44°19' E 008°31'1 0.1
2016-May-22 17:27N 44°18' E 008°29'0 0.0
2016-May-22 14:03N 44°18' E 008°29'0 0.8
2016-May-22 13:29N 44°19' E 008°30'0 0.5
2016-May-22 12:33N 44°18' E 008°29'0 0.0
2016-May-22 11:33N 44°18' E 008°29'0 0.0
2016-May-22 09:33N 44°18' E 008°29'0 0.0
2016-May-21 19:06N 44°18' E 008°29'0 0.0
2016-May-21 18:30N 44°18' E 008°29'0 0.0
2016-May-21 17:27N 44°18' E 008°29'0 0.0
2016-May-21 15:24N 44°18' E 008°29'0 0.0
2016-May-21 13:30N 44°18' E 008°29'0 0.0
2016-May-21 12:30N 44°18' E 008°29'2 2.1
2016-May-21 11:24N 44°17' E 008°28'0 0.1
2016-May-21 10:33N 44°17' E 008°28'3 0.6
2016-May-21 05:33N 44°19' E 008°30'0 0.3
2016-May-21 04:33N 44°19' E 008°31'1 0.1
2016-May-20 19:31N 44°18' E 008°29'0 0.0
2016-May-20 16:17N 44°18' E 008°29'0 0.0
2016-May-20 15:32N 44°18' E 008°29'1 0.5
2016-May-20 14:33N 44°19' E 008°30'1 0.3
2016-May-20 12:30N 44°18' E 008°29'0 0.0
2016-May-20 07:21N 44°18' E 008°29'2 2.6
2016-May-20 06:30N 44°17' E 008°28'3 1.6
2016-May-20 04:33N 44°19' E 008°30'1 0.0
2016-May-19 13:33N 44°19' E 008°30'3 3.0
2016-May-19 12:33N 44°16' E 008°28'0 0.4
2016-May-19 11:33N 44°16' E 008°27'3 0.2
2016-May-18 16:24N 44°19' E 008°30'0 0.0
2016-May-17 19:21N 44°18' E 008°29'0 0.0
2016-May-17 18:31N 44°18' E 008°29'0 0.0
2016-May-17 17:31N 44°18' E 008°29'0 0.0
2016-May-17 15:14N 44°18' E 008°29'0 0.0
2016-May-17 14:32N 44°18' E 008°29'0 0.0
2016-May-17 13:33N 44°18' E 008°29'0 0.0
2016-May-17 12:33N 44°18' E 008°29'0 0.0
2016-May-17 11:26N 44°18' E 008°29'0 0.0
2016-May-17 10:32N 44°18' E 008°29'0 0.0
2016-May-17 09:33N 44°18' E 008°29'0 0.0
2016-May-17 08:33N 44°18' E 008°29'  
Track history (hours):
 
Tides and Currents Weather Stations Pressure Air Temp Water Temp Dewpoint Dewpoint Depression Visibility Wind Speed Wind Dir Waves Ship Positions

Capo Vado

Last reported at 2016-May-27 07:27 UTC. Time now 2016-May-27 10:20 UTC.
Position N 44°18' E 008°29'.

Length 30 m; draft 4.5 m.

Type: Tug. MMSI: 247228400.

Date/timePositionNaut miles runAvg speedWind from/ knotsBaromVisibWave heightAir tempDewpointWater temp
2016-May-27 07:27N 44°18' E 008°29'1 1.0
2016-May-27 06:33N 44°19' E 008°30'1 0.7
2016-May-27 05:17N 44°18' E 008°29'0 0.0
2016-May-26 23:26N 44°18' E 008°29'0 0.0
2016-May-26 17:32N 44°18' E 008°29'0 0.0
2016-May-26 16:32N 44°18' E 008°29'0 0.0
2016-May-26 15:32N 44°18' E 008°29'0 0.0
2016-May-26 14:26N 44°18' E 008°29'0 0.0
2016-May-26 13:29N 44°18' E 008°29'0 0.0
2016-May-26 12:26N 44°18' E 008°29'0 0.0
2016-May-26 11:32N 44°18' E 008°29'0 0.1
2016-May-26 09:33N 44°19' E 008°29'3 3.0
2016-May-26 08:29N 44°16' E 008°27'4 0.2
2016-May-25 13:30N 44°19' E 008°30'1 0.0
2016-May-24 08:13N 44°18' E 008°29'0 0.0
2016-May-24 05:28N 44°18' E 008°29'1 0.7
2016-May-24 04:32N 44°19' E 008°30'0 0.2
2016-May-24 03:32N 44°19' E 008°30'1 0.4
2016-May-24 02:03N 44°18' E 008°29'0 0.0
2016-May-24 01:21N 44°18' E 008°29'0 0.0
2016-May-23 13:20N 44°19' E 008°29'1 1.0
2016-May-23 12:30N 44°19' E 008°30'0 0.1
2016-May-23 10:29N 44°19' E 008°30'1 0.2
2016-May-23 07:22N 44°18' E 008°29'2 2.7
2016-May-23 06:31N 44°17' E 008°28'0 0.4
2016-May-23 05:33N 44°16' E 008°28'3 3.0
2016-May-23 04:25N 44°19' E 008°31'1 0.1
2016-May-22 17:27N 44°18' E 008°29'0 0.0
2016-May-22 14:03N 44°18' E 008°29'0 0.8
2016-May-22 13:29N 44°19' E 008°30'0 0.5
2016-May-22 12:33N 44°18' E 008°29'0 0.0
2016-May-22 11:33N 44°18' E 008°29'0 0.0
2016-May-22 09:33N 44°18' E 008°29'0 0.0
2016-May-21 19:06N 44°18' E 008°29'0 0.0
2016-May-21 18:30N 44°18' E 008°29'0 0.0
2016-May-21 17:27N 44°18' E 008°29'0 0.0
2016-May-21 15:24N 44°18' E 008°29'0 0.0
2016-May-21 13:30N 44°18' E 008°29'0 0.0
2016-May-21 12:30N 44°18' E 008°29'2 2.1
2016-May-21 11:24N 44°17' E 008°28'0 0.1
2016-May-21 10:33N 44°17' E 008°28'3 0.6
2016-May-21 05:33N 44°19' E 008°30'0 0.3
2016-May-21 04:33N 44°19' E 008°31'1 0.1
2016-May-20 19:31N 44°18' E 008°29'0 0.0
2016-May-20 16:17N 44°18' E 008°29'0 0.0
2016-May-20 15:32N 44°18' E 008°29'1 0.5
2016-May-20 14:33N 44°19' E 008°30'1 0.3
2016-May-20 12:30N 44°18' E 008°29'0 0.0
2016-May-20 07:21N 44°18' E 008°29'2 2.6
2016-May-20 06:30N 44°17' E 008°28'3 1.6
2016-May-20 04:33N 44°19' E 008°30'1 0.0
2016-May-19 13:33N 44°19' E 008°30'3 3.0
2016-May-19 12:33N 44°16' E 008°28'0 0.4
2016-May-19 11:33N 44°16' E 008°27'3 0.2
2016-May-18 16:24N 44°19' E 008°30'0 0.0
2016-May-17 19:21N 44°18' E 008°29'0 0.0
2016-May-17 18:31N 44°18' E 008°29'0 0.0
2016-May-17 17:31N 44°18' E 008°29'0 0.0
2016-May-17 15:14N 44°18' E 008°29'0 0.0
2016-May-17 14:32N 44°18' E 008°29'0 0.0
2016-May-17 13:33N 44°18' E 008°29'0 0.0
2016-May-17 12:33N 44°18' E 008°29'0 0.0
2016-May-17 11:26N 44°18' E 008°29'0 0.0
2016-May-17 10:32N 44°18' E 008°29'0 0.0
2016-May-17 09:33N 44°18' E 008°29'0 0.0
2016-May-17 08:33N 44°18' E 008°29'  

Dump ship's entire track history